sensor_id;sensor_type;location;lat;lon;timestamp;temperature;humidity
2893;DHT22;1456;51.840;12.184;2022-10-23T00:01:38;11.30;99.90
2893;DHT22;1456;51.840;12.184;2022-10-23T00:06:37;11.10;99.90
2893;DHT22;1456;51.840;12.184;2022-10-23T00:09:05;11.10;99.90
2893;DHT22;1456;51.840;12.184;2022-10-23T00:11:33;11.00;99.90
2893;DHT22;1456;51.840;12.184;2022-10-23T00:14:01;11.00;99.90
2893;DHT22;1456;51.840;12.184;2022-10-23T00:16:28;10.90;99.90
2893;DHT22;1456;51.840;12.184;2022-10-23T00:18:57;10.90;99.90
2893;DHT22;1456;51.840;12.184;2022-10-23T00:21:23;10.80;99.90
2893;DHT22;1456;51.840;12.184;2022-10-23T00:23:56;10.80;99.90
2893;DHT22;1456;51.840;12.184;2022-10-23T00:26:23;10.80;99.90
2893;DHT22;1456;51.840;12.184;2022-10-23T00:28:51;10.80;99.90
2893;DHT22;1456;51.840;12.184;2022-10-23T00:31:18;10.70;99.90
2893;DHT22;1456;51.840;12.184;2022-10-23T00:33:46;10.80;99.90
2893;DHT22;1456;51.840;12.184;2022-10-23T00:36:14;10.70;99.90
2893;DHT22;1456;51.840;12.184;2022-10-23T00:38:39;10.80;99.90
2893;DHT22;1456;51.840;12.184;2022-10-23T00:41:07;10.70;99.90
2893;DHT22;1456;51.840;12.184;2022-10-23T00:43:58;10.70;99.90
2893;DHT22;1456;51.840;12.184;2022-10-23T00:46:27;10.60;99.90
2893;DHT22;1456;51.840;12.184;2022-10-23T00:48:53;10.60;99.90
2893;DHT22;1456;51.840;12.184;2022-10-23T00:51:24;10.60;99.90
2893;DHT22;1456;51.840;12.184;2022-10-23T00:53:56;10.60;99.90
2893;DHT22;1456;51.840;12.184;2022-10-23T00:56:22;10.50;99.90
2893;DHT22;1456;51.840;12.184;2022-10-23T00:58:52;10.50;99.90
2893;DHT22;1456;51.840;12.184;2022-10-23T01:01:20;10.60;99.90
2893;DHT22;1456;51.840;12.184;2022-10-23T01:03:47;10.60;99.90
2893;DHT22;1456;51.840;12.184;2022-10-23T01:12:25;10.40;99.90
2893;DHT22;1456;51.840;12.184;2022-10-23T01:15:15;10.50;99.90
2893;DHT22;1456;51.840;12.184;2022-10-23T01:24:39;10.40;99.90
2893;DHT22;1456;51.840;12.184;2022-10-23T01:34:59;10.30;99.90
2893;DHT22;1456;51.840;12.184;2022-10-23T01:37:33;10.30;99.90
2893;DHT22;1456;51.840;12.184;2022-10-23T01:40:04;10.20;99.90
2893;DHT22;1456;51.840;12.184;2022-10-23T01:42:39;10.00;99.90
2893;DHT22;1456;51.840;12.184;2022-10-23T01:45:17;10.10;99.90
2893;DHT22;1456;51.840;12.184;2022-10-23T01:47:44;10.20;99.90
2893;DHT22;1456;51.840;12.184;2022-10-23T01:50:12;10.30;99.90
2893;DHT22;1456;51.840;12.184;2022-10-23T01:52:39;10.30;99.90
2893;DHT22;1456;51.840;12.184;2022-10-23T01:55:06;10.30;99.90
2893;DHT22;1456;51.840;12.184;2022-10-23T01:57:36;10.40;99.90
2893;DHT22;1456;51.840;12.184;2022-10-23T02:00:08;10.50;99.90
2893;DHT22;1456;51.840;12.184;2022-10-23T02:02:38;10.60;99.90
2893;DHT22;1456;51.840;12.184;2022-10-23T02:05:10;10.60;99.90
2893;DHT22;1456;51.840;12.184;2022-10-23T02:07:39;10.60;99.90
2893;DHT22;1456;51.840;12.184;2022-10-23T02:10:06;10.70;99.90
2893;DHT22;1456;51.840;12.184;2022-10-23T02:12:48;10.60;99.90
2893;DHT22;1456;51.840;12.184;2022-10-23T02:15:36;10.50;99.90
2893;DHT22;1456;51.840;12.184;2022-10-23T02:20:56;10.50;99.90
2893;DHT22;1456;51.840;12.184;2022-10-23T02:23:51;10.50;99.90
2893;DHT22;1456;51.840;12.184;2022-10-23T02:26:33;10.60;99.90
2893;DHT22;1456;51.840;12.184;2022-10-23T02:29:11;10.60;99.90
2893;DHT22;1456;51.840;12.184;2022-10-23T02:31:41;10.60;99.90
2893;DHT22;1456;51.840;12.184;2022-10-23T02:34:09;10.60;99.90
2893;DHT22;1456;51.840;12.184;2022-10-23T02:36:36;10.70;99.90
2893;DHT22;1456;51.840;12.184;2022-10-23T02:39:03;10.60;99.90
2893;DHT22;1456;51.840;12.184;2022-10-23T02:41:48;10.60;99.90
2893;DHT22;1456;51.840;12.184;2022-10-23T02:55:20;10.40;99.90
2893;DHT22;1456;51.840;12.184;2022-10-23T02:58:02;10.40;99.90
2893;DHT22;1456;51.840;12.184;2022-10-23T03:00:31;10.20;99.90
2893;DHT22;1456;51.840;12.184;2022-10-23T03:03:10;10.20;99.90
2893;DHT22;1456;51.840;12.184;2022-10-23T03:05:38;10.10;99.90
2893;DHT22;1456;51.840;12.184;2022-10-23T03:08:11;10.10;99.90
2893;DHT22;1456;51.840;12.184;2022-10-23T03:10:38;10.10;99.90
2893;DHT22;1456;51.840;12.184;2022-10-23T03:13:04;10.10;99.90
2893;DHT22;1456;51.840;12.184;2022-10-23T03:15:33;10.00;99.90
2893;DHT22;1456;51.840;12.184;2022-10-23T03:18:01;10.00;99.90
2893;DHT22;1456;51.840;12.184;2022-10-23T03:20:26;9.90;99.90
2893;DHT22;1456;51.840;12.184;2022-10-23T03:22:55;9.90;99.90
2893;DHT22;1456;51.840;12.184;2022-10-23T03:25:22;9.90;99.90
2893;DHT22;1456;51.840;12.184;2022-10-23T03:27:49;9.90;99.90
2893;DHT22;1456;51.840;12.184;2022-10-23T03:30:16;9.80;99.90
2893;DHT22;1456;51.840;12.184;2022-10-23T03:32:42;9.80;99.90
2893;DHT22;1456;51.840;12.184;2022-10-23T03:35:08;9.70;99.90
2893;DHT22;1456;51.840;12.184;2022-10-23T03:37:34;9.70;99.90
2893;DHT22;1456;51.840;12.184;2022-10-23T03:40:02;9.70;99.90
2893;DHT22;1456;51.840;12.184;2022-10-23T03:42:31;9.70;99.90
2893;DHT22;1456;51.840;12.184;2022-10-23T03:44:57;9.70;99.90
2893;DHT22;1456;51.840;12.184;2022-10-23T03:47:23;9.70;99.90
2893;DHT22;1456;51.840;12.184;2022-10-23T03:49:54;9.70;99.90
2893;DHT22;1456;51.840;12.184;2022-10-23T03:52:23;9.70;99.90
2893;DHT22;1456;51.840;12.184;2022-10-23T03:54:49;9.80;99.90
2893;DHT22;1456;51.840;12.184;2022-10-23T03:57:17;9.70;99.90
2893;DHT22;1456;51.840;12.184;2022-10-23T03:59:43;9.70;99.90
2893;DHT22;1456;51.840;12.184;2022-10-23T04:02:09;9.60;99.90
2893;DHT22;1456;51.840;12.184;2022-10-23T04:04:40;9.60;99.90
2893;DHT22;1456;51.840;12.184;2022-10-23T04:07:05;9.50;99.90
2893;DHT22;1456;51.840;12.184;2022-10-23T04:09:32;9.60;99.90
2893;DHT22;1456;51.840;12.184;2022-10-23T04:11:59;9.60;99.90
2893;DHT22;1456;51.840;12.184;2022-10-23T04:14:24;9.60;99.90
2893;DHT22;1456;51.840;12.184;2022-10-23T04:16:50;9.60;99.90
2893;DHT22;1456;51.840;12.184;2022-10-23T04:19:16;9.70;99.90
2893;DHT22;1456;51.840;12.184;2022-10-23T04:21:42;9.70;99.90
2893;DHT22;1456;51.840;12.184;2022-10-23T04:24:10;9.80;99.90
2893;DHT22;1456;51.840;12.184;2022-10-23T04:26:38;9.70;99.90
2893;DHT22;1456;51.840;12.184;2022-10-23T04:29:04;9.80;99.90
2893;DHT22;1456;51.840;12.184;2022-10-23T04:31:30;9.80;99.90
2893;DHT22;1456;51.840;12.184;2022-10-23T04:33:57;9.80;99.90
2893;DHT22;1456;51.840;12.184;2022-10-23T04:36:26;9.80;99.90
2893;DHT22;1456;51.840;12.184;2022-10-23T04:38:56;9.80;99.90
2893;DHT22;1456;51.840;12.184;2022-10-23T04:41:22;9.80;99.90
2893;DHT22;1456;51.840;12.184;2022-10-23T04:43:48;9.80;99.90
2893;DHT22;1456;51.840;12.184;2022-10-23T04:46:16;9.70;99.90
2893;DHT22;1456;51.840;12.184;2022-10-23T04:48:43;9.70;99.90
2893;DHT22;1456;51.840;12.184;2022-10-23T04:51:14;9.70;99.90
2893;DHT22;1456;51.840;12.184;2022-10-23T04:53:40;9.70;99.90
2893;DHT22;1456;51.840;12.184;2022-10-23T04:56:06;9.70;99.90
2893;DHT22;1456;51.840;12.184;2022-10-23T04:58:31;9.60;99.90
2893;DHT22;1456;51.840;12.184;2022-10-23T05:00:57;9.60;99.90
2893;DHT22;1456;51.840;12.184;2022-10-23T05:03:25;9.60;99.90
2893;DHT22;1456;51.840;12.184;2022-10-23T05:05:53;9.60;99.90
2893;DHT22;1456;51.840;12.184;2022-10-23T05:08:24;9.60;99.90
2893;DHT22;1456;51.840;12.184;2022-10-23T05:10:50;9.70;99.90
2893;DHT22;1456;51.840;12.184;2022-10-23T05:13:17;9.70;99.90
2893;DHT22;1456;51.840;12.184;2022-10-23T05:15:48;9.70;99.90
2893;DHT22;1456;51.840;12.184;2022-10-23T05:20:48;9.70;99.90
2893;DHT22;1456;51.840;12.184;2022-10-23T05:23:17;9.60;99.90
2893;DHT22;1456;51.840;12.184;2022-10-23T05:25:44;9.50;99.90
2893;DHT22;1456;51.840;12.184;2022-10-23T05:28:10;9.50;99.90
2893;DHT22;1456;51.840;12.184;2022-10-23T05:30:36;9.50;99.90
2893;DHT22;1456;51.840;12.184;2022-10-23T05:33:02;9.50;99.90
2893;DHT22;1456;51.840;12.184;2022-10-23T05:35:28;9.50;99.90
2893;DHT22;1456;51.840;12.184;2022-10-23T05:37:55;9.50;99.90
2893;DHT22;1456;51.840;12.184;2022-10-23T05:40:22;9.50;99.90
2893;DHT22;1456;51.840;12.184;2022-10-23T05:42:48;9.50;99.90
2893;DHT22;1456;51.840;12.184;2022-10-23T05:45:17;9.60;99.90
2893;DHT22;1456;51.840;12.184;2022-10-23T05:47:44;9.60;99.90
2893;DHT22;1456;51.840;12.184;2022-10-23T05:50:11;9.70;99.90
2893;DHT22;1456;51.840;12.184;2022-10-23T05:52:37;9.70;99.90
2893;DHT22;1456;51.840;12.184;2022-10-23T05:55:04;9.70;99.90
2893;DHT22;1456;51.840;12.184;2022-10-23T05:57:33;9.60;99.90
2893;DHT22;1456;51.840;12.184;2022-10-23T05:59:59;9.70;99.90
2893;DHT22;1456;51.840;12.184;2022-10-23T06:02:26;9.70;99.90
2893;DHT22;1456;51.840;12.184;2022-10-23T06:04:57;9.60;99.90
2893;DHT22;1456;51.840;12.184;2022-10-23T06:07:28;9.60;99.90
2893;DHT22;1456;51.840;12.184;2022-10-23T06:09:53;9.70;99.90
2893;DHT22;1456;51.840;12.184;2022-10-23T06:12:21;9.80;99.90
2893;DHT22;1456;51.840;12.184;2022-10-23T06:14:48;9.80;99.90
2893;DHT22;1456;51.840;12.184;2022-10-23T06:17:18;9.90;99.90
2893;DHT22;1456;51.840;12.184;2022-10-23T06:19:44;10.00;99.90
2893;DHT22;1456;51.840;12.184;2022-10-23T06:22:10;10.10;99.90
2893;DHT22;1456;51.840;12.184;2022-10-23T06:24:39;10.20;99.90
2893;DHT22;1456;51.840;12.184;2022-10-23T06:27:05;10.30;99.90
2893;DHT22;1456;51.840;12.184;2022-10-23T06:29:35;10.30;99.90
2893;DHT22;1456;51.840;12.184;2022-10-23T06:32:01;10.40;99.90
2893;DHT22;1456;51.840;12.184;2022-10-23T06:34:27;10.50;99.90
2893;DHT22;1456;51.840;12.184;2022-10-23T06:36:53;10.60;99.90
2893;DHT22;1456;51.840;12.184;2022-10-23T06:39:19;10.70;99.90
2893;DHT22;1456;51.840;12.184;2022-10-23T06:41:47;10.80;99.90
2893;DHT22;1456;51.840;12.184;2022-10-23T06:44:14;10.90;99.90
2893;DHT22;1456;51.840;12.184;2022-10-23T06:46:39;10.90;99.90
2893;DHT22;1456;51.840;12.184;2022-10-23T06:49:05;10.90;99.90
2893;DHT22;1456;51.840;12.184;2022-10-23T06:51:33;11.00;99.90
2893;DHT22;1456;51.840;12.184;2022-10-23T06:53:59;11.00;99.90
2893;DHT22;1456;51.840;12.184;2022-10-23T06:56:28;11.10;99.90
2893;DHT22;1456;51.840;12.184;2022-10-23T06:58:56;11.20;99.90
2893;DHT22;1456;51.840;12.184;2022-10-23T07:01:25;11.40;99.90
2893;DHT22;1456;51.840;12.184;2022-10-23T07:03:52;11.50;99.90
2893;DHT22;1456;51.840;12.184;2022-10-23T07:06:18;11.70;99.90
2893;DHT22;1456;51.840;12.184;2022-10-23T07:08:44;11.80;99.90
2893;DHT22;1456;51.840;12.184;2022-10-23T07:11:11;11.90;99.90
2893;DHT22;1456;51.840;12.184;2022-10-23T07:13:38;12.00;99.90
2893;DHT22;1456;51.840;12.184;2022-10-23T07:16:20;12.10;99.90
2893;DHT22;1456;51.840;12.184;2022-10-23T07:18:48;12.30;99.90
2893;DHT22;1456;51.840;12.184;2022-10-23T07:21:14;12.40;99.90
2893;DHT22;1456;51.840;12.184;2022-10-23T07:23:44;12.50;99.90
2893;DHT22;1456;51.840;12.184;2022-10-23T07:26:14;12.70;99.90
2893;DHT22;1456;51.840;12.184;2022-10-23T07:28:45;12.80;99.90
2893;DHT22;1456;51.840;12.184;2022-10-23T07:31:13;13.00;99.90
2893;DHT22;1456;51.840;12.184;2022-10-23T07:33:40;13.10;99.90
2893;DHT22;1456;51.840;12.184;2022-10-23T07:36:07;13.30;99.90
2893;DHT22;1456;51.840;12.184;2022-10-23T07:38:37;13.40;99.90
2893;DHT22;1456;51.840;12.184;2022-10-23T07:41:04;13.60;99.90
2893;DHT22;1456;51.840;12.184;2022-10-23T07:43:29;13.70;99.90
2893;DHT22;1456;51.840;12.184;2022-10-23T07:45:57;13.80;99.90
2893;DHT22;1456;51.840;12.184;2022-10-23T07:48:23;14.00;99.90
2893;DHT22;1456;51.840;12.184;2022-10-23T07:50:49;14.20;99.90
2893;DHT22;1456;51.840;12.184;2022-10-23T07:53:23;14.40;99.90
2893;DHT22;1456;51.840;12.184;2022-10-23T07:55:57;14.60;99.90
2893;DHT22;1456;51.840;12.184;2022-10-23T07:58:25;14.80;99.90
2893;DHT22;1456;51.840;12.184;2022-10-23T08:01:00;14.80;99.90
2893;DHT22;1456;51.840;12.184;2022-10-23T08:03:32;15.00;99.90
2893;DHT22;1456;51.840;12.184;2022-10-23T08:05:58;15.10;99.90
2893;DHT22;1456;51.840;12.184;2022-10-23T08:08:25;15.40;99.90
2893;DHT22;1456;51.840;12.184;2022-10-23T08:10:53;15.60;99.90
2893;DHT22;1456;51.840;12.184;2022-10-23T08:13:20;15.60;99.90
2893;DHT22;1456;51.840;12.184;2022-10-23T08:15:48;15.60;99.90
2893;DHT22;1456;51.840;12.184;2022-10-23T08:18:15;15.70;99.90
2893;DHT22;1456;51.840;12.184;2022-10-23T08:20:42;15.80;99.90
2893;DHT22;1456;51.840;12.184;2022-10-23T08:23:10;15.90;99.90
2893;DHT22;1456;51.840;12.184;2022-10-23T08:25:43;15.90;99.90
2893;DHT22;1456;51.840;12.184;2022-10-23T08:28:09;16.10;99.90
2893;DHT22;1456;51.840;12.184;2022-10-23T08:30:35;16.00;99.90
2893;DHT22;1456;51.840;12.184;2022-10-23T08:33:05;16.20;99.90
2893;DHT22;1456;51.840;12.184;2022-10-23T08:35:35;16.30;99.90
2893;DHT22;1456;51.840;12.184;2022-10-23T08:38:01;16.40;99.90
2893;DHT22;1456;51.840;12.184;2022-10-23T08:40:27;16.40;99.90
2893;DHT22;1456;51.840;12.184;2022-10-23T08:43:26;16.40;99.90
2893;DHT22;1456;51.840;12.184;2022-10-23T08:45:59;16.60;99.90
2893;DHT22;1456;51.840;12.184;2022-10-23T08:48:45;16.60;99.90
2893;DHT22;1456;51.840;12.184;2022-10-23T08:51:18;16.60;99.90
2893;DHT22;1456;51.840;12.184;2022-10-23T08:53:59;16.70;99.90
2893;DHT22;1456;51.840;12.184;2022-10-23T08:56:39;16.70;99.90
2893;DHT22;1456;51.840;12.184;2022-10-23T09:02:23;16.70;99.90
2893;DHT22;1456;51.840;12.184;2022-10-23T09:04:53;16.70;99.90
2893;DHT22;1456;51.840;12.184;2022-10-23T09:12:48;16.70;99.90
2893;DHT22;1456;51.840;12.184;2022-10-23T09:17:56;16.90;99.90
2893;DHT22;1456;51.840;12.184;2022-10-23T09:20:34;17.00;99.90
2893;DHT22;1456;51.840;12.184;2022-10-23T09:23:11;16.90;99.90
2893;DHT22;1456;51.840;12.184;2022-10-23T09:25:42;16.80;99.90
2893;DHT22;1456;51.840;12.184;2022-10-23T09:28:19;16.60;99.90
2893;DHT22;1456;51.840;12.184;2022-10-23T09:30:50;16.70;99.90
2893;DHT22;1456;51.840;12.184;2022-10-23T09:33:26;16.40;99.90
2893;DHT22;1456;51.840;12.184;2022-10-23T09:41:00;17.10;99.90
2893;DHT22;1456;51.840;12.184;2022-10-23T09:43:27;17.20;99.90
2893;DHT22;1456;51.840;12.184;2022-10-23T09:46:02;16.90;99.90
2893;DHT22;1456;51.840;12.184;2022-10-23T09:48:31;17.20;99.90
2893;DHT22;1456;51.840;12.184;2022-10-23T09:51:03;17.40;99.90
2893;DHT22;1456;51.840;12.184;2022-10-23T09:56:35;18.40;99.90
2893;DHT22;1456;51.840;12.184;2022-10-23T10:01:49;18.00;99.90
2893;DHT22;1456;51.840;12.184;2022-10-23T10:04:15;18.00;99.90
2893;DHT22;1456;51.840;12.184;2022-10-23T10:06:43;18.00;99.90
2893;DHT22;1456;51.840;12.184;2022-10-23T10:09:16;18.30;99.90
2893;DHT22;1456;51.840;12.184;2022-10-23T10:11:54;18.60;99.90
2893;DHT22;1456;51.840;12.184;2022-10-23T10:17:26;18.30;99.90
2893;DHT22;1456;51.840;12.184;2022-10-23T10:20:24;18.80;99.90
2893;DHT22;1456;51.840;12.184;2022-10-23T10:23:24;18.80;99.90
2893;DHT22;1456;51.840;12.184;2022-10-23T10:26:05;19.20;99.90
2893;DHT22;1456;51.840;12.184;2022-10-23T10:37:05;20.50;99.90
2893;DHT22;1456;51.840;12.184;2022-10-23T10:45:06;21.00;99.90
2893;DHT22;1456;51.840;12.184;2022-10-23T10:47:47;21.50;99.90
2893;DHT22;1456;51.840;12.184;2022-10-23T10:50:25;22.00;99.90
2893;DHT22;1456;51.840;12.184;2022-10-23T10:56:12;22.40;99.90
2893;DHT22;1456;51.840;12.184;2022-10-23T10:58:49;22.30;99.90
2893;DHT22;1456;51.840;12.184;2022-10-23T11:01:35;22.20;99.90
2893;DHT22;1456;51.840;12.184;2022-10-23T11:04:25;22.30;99.90
2893;DHT22;1456;51.840;12.184;2022-10-23T11:06:53;22.40;99.90
2893;DHT22;1456;51.840;12.184;2022-10-23T11:09:24;22.40;99.90
2893;DHT22;1456;51.840;12.184;2022-10-23T11:11:50;22.20;99.90
2893;DHT22;1456;51.840;12.184;2022-10-23T11:14:27;22.20;99.90
2893;DHT22;1456;51.840;12.184;2022-10-23T11:17:19;22.20;99.90
2893;DHT22;1456;51.840;12.184;2022-10-23T11:20:06;22.10;99.90
2893;DHT22;1456;51.840;12.184;2022-10-23T11:36:04;23.30;99.90
2893;DHT22;1456;51.840;12.184;2022-10-23T11:38:43;23.60;99.90
2893;DHT22;1456;51.840;12.184;2022-10-23T11:41:29;23.50;99.90
2893;DHT22;1456;51.840;12.184;2022-10-23T11:43:59;23.00;99.90
2893;DHT22;1456;51.840;12.184;2022-10-23T11:46:37;21.60;99.90
2893;DHT22;1456;51.840;12.184;2022-10-23T11:49:04;21.70;99.90
2893;DHT22;1456;51.840;12.184;2022-10-23T11:51:39;21.70;99.90
2893;DHT22;1456;51.840;12.184;2022-10-23T12:02:08;22.80;99.90
2893;DHT22;1456;51.840;12.184;2022-10-23T12:04:46;22.60;99.90
2893;DHT22;1456;51.840;12.184;2022-10-23T12:07:32;22.70;99.90
2893;DHT22;1456;51.840;12.184;2022-10-23T12:10:19;23.00;99.90
2893;DHT22;1456;51.840;12.184;2022-10-23T12:12:58;23.30;99.90
2893;DHT22;1456;51.840;12.184;2022-10-23T12:15:25;23.40;99.90
2893;DHT22;1456;51.840;12.184;2022-10-23T12:17:52;23.30;99.90
2893;DHT22;1456;51.840;12.184;2022-10-23T12:20:50;23.40;99.90
2893;DHT22;1456;51.840;12.184;2022-10-23T12:31:51;23.30;99.90
2893;DHT22;1456;51.840;12.184;2022-10-23T12:34:37;23.40;99.90
2893;DHT22;1456;51.840;12.184;2022-10-23T12:40:12;23.60;99.90
2893;DHT22;1456;51.840;12.184;2022-10-23T12:42:40;23.50;99.90
2893;DHT22;1456;51.840;12.184;2022-10-23T12:45:38;23.10;99.90
2893;DHT22;1456;51.840;12.184;2022-10-23T12:48:18;22.90;99.90
2893;DHT22;1456;51.840;12.184;2022-10-23T12:50:48;22.90;99.90
2893;DHT22;1456;51.840;12.184;2022-10-23T12:53:19;23.00;99.90
2893;DHT22;1456;51.840;12.184;2022-10-23T12:58:31;23.20;99.90
2893;DHT22;1456;51.840;12.184;2022-10-23T13:01:02;22.80;99.90
2893;DHT22;1456;51.840;12.184;2022-10-23T13:03:30;23.10;99.90
2893;DHT22;1456;51.840;12.184;2022-10-23T13:05:57;23.60;99.90
2893;DHT22;1456;51.840;12.184;2022-10-23T13:08:28;24.30;99.90
2893;DHT22;1456;51.840;12.184;2022-10-23T13:10:56;25.00;99.90
2893;DHT22;1456;51.840;12.184;2022-10-23T13:13:22;25.40;99.40
2893;DHT22;1456;51.840;12.184;2022-10-23T13:15:49;25.30;99.20
2893;DHT22;1456;51.840;12.184;2022-10-23T13:18:15;25.20;99.10
2893;DHT22;1456;51.840;12.184;2022-10-23T13:21:03;24.70;99.70
2893;DHT22;1456;51.840;12.184;2022-10-23T13:23:32;25.10;98.50
2893;DHT22;1456;51.840;12.184;2022-10-23T13:26:23;24.30;95.60
2893;DHT22;1456;51.840;12.184;2022-10-23T13:28:53;24.00;97.50
2893;DHT22;1456;51.840;12.184;2022-10-23T13:31:33;23.00;96.10
2893;DHT22;1456;51.840;12.184;2022-10-23T13:34:05;22.10;98.20
2893;DHT22;1456;51.840;12.184;2022-10-23T13:36:51;22.20;98.90
2893;DHT22;1456;51.840;12.184;2022-10-23T13:39:23;22.30;98.90
2893;DHT22;1456;51.840;12.184;2022-10-23T13:41:49;22.20;98.40
2893;DHT22;1456;51.840;12.184;2022-10-23T13:44:20;21.90;99.20
2893;DHT22;1456;51.840;12.184;2022-10-23T13:46:47;22.10;99.90
2893;DHT22;1456;51.840;12.184;2022-10-23T13:49:16;22.40;99.90
2893;DHT22;1456;51.840;12.184;2022-10-23T13:51:54;22.80;99.60
2893;DHT22;1456;51.840;12.184;2022-10-23T13:54:26;22.70;99.90
2893;DHT22;1456;51.840;12.184;2022-10-23T13:56:53;23.00;99.90
2893;DHT22;1456;51.840;12.184;2022-10-23T13:59:21;23.10;98.90
2893;DHT22;1456;51.840;12.184;2022-10-23T14:01:48;23.30;99.60
2893;DHT22;1456;51.840;12.184;2022-10-23T14:04:15;23.30;99.30
2893;DHT22;1456;51.840;12.184;2022-10-23T14:06:43;23.10;99.40
2893;DHT22;1456;51.840;12.184;2022-10-23T14:09:14;22.90;99.50
2893;DHT22;1456;51.840;12.184;2022-10-23T14:11:43;22.50;99.80
2893;DHT22;1456;51.840;12.184;2022-10-23T14:14:09;22.30;99.90
2893;DHT22;1456;51.840;12.184;2022-10-23T14:16:34;22.20;99.90
2893;DHT22;1456;51.840;12.184;2022-10-23T14:19:02;22.10;99.90
2893;DHT22;1456;51.840;12.184;2022-10-23T14:21:28;21.70;99.90
2893;DHT22;1456;51.840;12.184;2022-10-23T14:23:59;21.60;99.90
2893;DHT22;1456;51.840;12.184;2022-10-23T14:26:26;21.40;99.90
2893;DHT22;1456;51.840;12.184;2022-10-23T14:28:57;21.40;99.90
2893;DHT22;1456;51.840;12.184;2022-10-23T14:31:25;21.20;99.90
2893;DHT22;1456;51.840;12.184;2022-10-23T14:33:59;21.10;99.90
2893;DHT22;1456;51.840;12.184;2022-10-23T14:36:32;20.90;99.90
2893;DHT22;1456;51.840;12.184;2022-10-23T14:39:05;20.40;99.90
2893;DHT22;1456;51.840;12.184;2022-10-23T14:41:31;20.10;99.90
2893;DHT22;1456;51.840;12.184;2022-10-23T14:43:56;20.00;99.90
2893;DHT22;1456;51.840;12.184;2022-10-23T14:46:23;20.00;99.90
2893;DHT22;1456;51.840;12.184;2022-10-23T14:48:50;19.90;99.90
2893;DHT22;1456;51.840;12.184;2022-10-23T14:51:24;19.70;99.90
2893;DHT22;1456;51.840;12.184;2022-10-23T14:54:02;19.70;99.90
2893;DHT22;1456;51.840;12.184;2022-10-23T14:56:31;19.60;99.90
2893;DHT22;1456;51.840;12.184;2022-10-23T14:58:57;19.40;99.90
2893;DHT22;1456;51.840;12.184;2022-10-23T15:01:47;19.40;99.90
2893;DHT22;1456;51.840;12.184;2022-10-23T15:04:14;19.20;99.90
2893;DHT22;1456;51.840;12.184;2022-10-23T15:06:40;19.00;99.90
2893;DHT22;1456;51.840;12.184;2022-10-23T15:09:06;18.90;99.90
2893;DHT22;1456;51.840;12.184;2022-10-23T15:11:32;18.90;99.90
2893;DHT22;1456;51.840;12.184;2022-10-23T15:13:58;18.90;99.90
2893;DHT22;1456;51.840;12.184;2022-10-23T15:16:25;18.90;99.90
2893;DHT22;1456;51.840;12.184;2022-10-23T15:18:52;18.80;99.90
2893;DHT22;1456;51.840;12.184;2022-10-23T15:21:18;18.80;99.90
2893;DHT22;1456;51.840;12.184;2022-10-23T15:23:47;18.70;99.90
2893;DHT22;1456;51.840;12.184;2022-10-23T15:26:22;18.60;99.90
2893;DHT22;1456;51.840;12.184;2022-10-23T15:28:57;18.60;99.90
2893;DHT22;1456;51.840;12.184;2022-10-23T15:34:13;18.70;99.90
2893;DHT22;1456;51.840;12.184;2022-10-23T15:36:42;18.70;99.90
2893;DHT22;1456;51.840;12.184;2022-10-23T15:39:27;18.60;99.90
2893;DHT22;1456;51.840;12.184;2022-10-23T15:41:55;18.70;99.90
2893;DHT22;1456;51.840;12.184;2022-10-23T15:44:32;18.60;99.90
2893;DHT22;1456;51.840;12.184;2022-10-23T15:46:59;18.50;99.90
2893;DHT22;1456;51.840;12.184;2022-10-23T15:49:26;18.50;99.90
2893;DHT22;1456;51.840;12.184;2022-10-23T15:51:53;18.40;99.90
2893;DHT22;1456;51.840;12.184;2022-10-23T15:54:28;18.20;99.90
2893;DHT22;1456;51.840;12.184;2022-10-23T15:56:57;18.20;99.90
2893;DHT22;1456;51.840;12.184;2022-10-23T15:59:24;18.10;99.90
2893;DHT22;1456;51.840;12.184;2022-10-23T16:01:50;18.00;99.90
2893;DHT22;1456;51.840;12.184;2022-10-23T16:04:16;18.00;99.90
2893;DHT22;1456;51.840;12.184;2022-10-23T16:06:44;17.90;99.90
2893;DHT22;1456;51.840;12.184;2022-10-23T16:09:10;17.80;99.90
2893;DHT22;1456;51.840;12.184;2022-10-23T16:11:45;17.70;99.90
2893;DHT22;1456;51.840;12.184;2022-10-23T16:14:13;17.60;99.90
2893;DHT22;1456;51.840;12.184;2022-10-23T16:16:39;17.50;99.90
2893;DHT22;1456;51.840;12.184;2022-10-23T16:19:12;17.40;99.90
2893;DHT22;1456;51.840;12.184;2022-10-23T16:21:42;17.30;99.90
2893;DHT22;1456;51.840;12.184;2022-10-23T16:24:10;17.20;99.90
2893;DHT22;1456;51.840;12.184;2022-10-23T16:26:37;17.10;99.90
2893;DHT22;1456;51.840;12.184;2022-10-23T16:29:12;17.10;99.90
2893;DHT22;1456;51.840;12.184;2022-10-23T16:31:39;17.00;99.90
2893;DHT22;1456;51.840;12.184;2022-10-23T16:34:05;16.80;99.90
2893;DHT22;1456;51.840;12.184;2022-10-23T16:36:37;16.70;99.90
2893;DHT22;1456;51.840;12.184;2022-10-23T16:39:08;16.60;99.90
2893;DHT22;1456;51.840;12.184;2022-10-23T16:41:35;16.50;99.90
2893;DHT22;1456;51.840;12.184;2022-10-23T16:44:03;16.40;99.90
2893;DHT22;1456;51.840;12.184;2022-10-23T16:46:28;16.40;99.90
2893;DHT22;1456;51.840;12.184;2022-10-23T16:48:54;16.30;99.90
2893;DHT22;1456;51.840;12.184;2022-10-23T16:51:23;16.20;99.90
2893;DHT22;1456;51.840;12.184;2022-10-23T16:53:51;16.20;99.90
2893;DHT22;1456;51.840;12.184;2022-10-23T16:56:21;16.10;99.90
2893;DHT22;1456;51.840;12.184;2022-10-23T16:58:48;16.00;99.90
2893;DHT22;1456;51.840;12.184;2022-10-23T17:01:19;15.90;99.90
2893;DHT22;1456;51.840;12.184;2022-10-23T17:03:47;15.90;99.90
2893;DHT22;1456;51.840;12.184;2022-10-23T17:06:28;15.90;99.90
2893;DHT22;1456;51.840;12.184;2022-10-23T17:08:54;15.80;99.90
2893;DHT22;1456;51.840;12.184;2022-10-23T17:11:28;15.80;99.90
2893;DHT22;1456;51.840;12.184;2022-10-23T17:14:03;15.70;99.90
2893;DHT22;1456;51.840;12.184;2022-10-23T17:19:00;15.60;99.90
2893;DHT22;1456;51.840;12.184;2022-10-23T17:21:31;15.50;99.90
2893;DHT22;1456;51.840;12.184;2022-10-23T17:23:59;15.40;99.90
2893;DHT22;1456;51.840;12.184;2022-10-23T17:26:27;15.30;99.90
2893;DHT22;1456;51.840;12.184;2022-10-23T17:28:55;15.30;99.90
2893;DHT22;1456;51.840;12.184;2022-10-23T17:31:23;15.20;99.90
2893;DHT22;1456;51.840;12.184;2022-10-23T17:33:53;15.20;99.90
2893;DHT22;1456;51.840;12.184;2022-10-23T17:36:25;15.20;99.90
2893;DHT22;1456;51.840;12.184;2022-10-23T17:38:52;15.20;99.90
2893;DHT22;1456;51.840;12.184;2022-10-23T17:41:21;15.20;99.90
2893;DHT22;1456;51.840;12.184;2022-10-23T17:43:48;15.20;99.90
2893;DHT22;1456;51.840;12.184;2022-10-23T17:46:17;15.20;99.90
2893;DHT22;1456;51.840;12.184;2022-10-23T17:48:43;15.20;99.90
2893;DHT22;1456;51.840;12.184;2022-10-23T17:51:15;15.20;99.90
2893;DHT22;1456;51.840;12.184;2022-10-23T17:53:44;15.20;99.90
2893;DHT22;1456;51.840;12.184;2022-10-23T17:56:12;15.20;99.90
2893;DHT22;1456;51.840;12.184;2022-10-23T17:58:45;15.20;99.90
2893;DHT22;1456;51.840;12.184;2022-10-23T18:01:14;15.10;99.90
2893;DHT22;1456;51.840;12.184;2022-10-23T18:03:42;15.10;99.90
2893;DHT22;1456;51.840;12.184;2022-10-23T18:06:15;14.80;99.90
2893;DHT22;1456;51.840;12.184;2022-10-23T18:08:42;15.10;99.90
2893;DHT22;1456;51.840;12.184;2022-10-23T18:11:23;15.20;99.90
2893;DHT22;1456;51.840;12.184;2022-10-23T18:13:50;15.20;99.90